James Turecamo — WDC7565 — position and weather

sailwx.info

Track history (hours):
 
Tides and Currents Weather Stations Pressure Air Temp Water Temp Dewpoint Dewpoint Depression Visibility Wind Speed Wind Dir Waves Ship Positions

James Turecamo

Owner: Moran Towing Corporation, New Canaan, CT. More information available from US FCC via Universal Licensing System and Coast Guard Vessel Documentation Center.

Last reported at 2017-May-26 12:01 UTC. Time now 2017-May-26 16:55 UTC.
Position N 40°37' W 074°12'.

Length 30 m; draft 4.2 m.

Type: Tug. MMSI: 367073380.

Date/timePositionNaut miles runAvg speedWind from/ knotsBaromVisibWave heightAir tempDewpointWater temp
2017-May-26 12:01N 40°37' W 074°12'3 6.5
2017-May-26 11:30N 40°39' W 074°08'1 1.0
2017-May-26 11:01N 40°38' W 074°08'0 0.0
2017-May-26 10:31N 40°38' W 074°08'0 0.0
2017-May-26 10:01N 40°38' W 074°08'0 0.0
2017-May-26 09:31N 40°38' W 074°08'0 0.0
2017-May-26 09:00N 40°38' W 074°08'0 0.0
2017-May-26 08:31N 40°38' W 074°08'0 0.0
2017-May-26 08:00N 40°38' W 074°08'0 0.0
2017-May-26 07:31N 40°38' W 074°08'0 0.0
2017-May-26 07:01N 40°38' W 074°08'0 0.0
2017-May-26 06:31N 40°38' W 074°08'0 0.0
2017-May-26 06:01N 40°38' W 074°08'0 0.0
2017-May-26 05:30N 40°38' W 074°08'0 0.0
2017-May-26 05:00N 40°38' W 074°08'0 0.0
2017-May-26 04:31N 40°38' W 074°08'0 0.0
2017-May-26 04:01N 40°38' W 074°08'0 0.0
2017-May-26 03:30N 40°38' W 074°08'0 0.0
2017-May-26 03:01N 40°38' W 074°08'0 0.0
2017-May-26 02:31N 40°38' W 074°08'0 0.0
2017-May-26 02:01N 40°38' W 074°08'0 0.0
2017-May-26 01:31N 40°38' W 074°08'0 0.0
2017-May-26 01:01N 40°38' W 074°08'0 0.0
2017-May-26 00:31N 40°38' W 074°08'0 0.0
2017-May-26 00:00N 40°38' W 074°08'0 0.0
2017-May-25 23:31N 40°38' W 074°08'0 0.0
2017-May-25 23:01N 40°38' W 074°08'0 0.0
2017-May-25 22:31N 40°38' W 074°08'0 0.0
2017-May-25 22:01N 40°38' W 074°08'0 0.0
2017-May-25 21:31N 40°38' W 074°08'0 0.0
2017-May-25 21:01N 40°38' W 074°08'0 0.0
2017-May-25 20:31N 40°38' W 074°08'0 0.0
2017-May-25 20:01N 40°38' W 074°08'0 0.0
2017-May-25 19:30N 40°38' W 074°08'0 0.0
2017-May-25 19:00N 40°38' W 074°08'0 0.0
2017-May-25 18:30N 40°38' W 074°08'0 0.0
2017-May-25 18:00N 40°38' W 074°08'0 0.0
2017-May-25 17:30N 40°38' W 074°08'0 0.0
2017-May-25 17:00N 40°38' W 074°08'0 0.0
2017-May-25 16:30N 40°38' W 074°08'0 0.0
2017-May-25 15:51N 40°38' W 074°08'0 0.0
2017-May-25 15:19N 40°38' W 074°08'0 0.0
2017-May-25 15:00N 40°38' W 074°08'0 0.0
2017-May-25 13:46N 40°38' W 074°08'0 1.7
2017-May-25 13:30N 40°39' W 074°07'0 0.1
2017-May-25 13:01N 40°39' W 074°07'0 0.5
2017-May-25 12:31N 40°39' W 074°07'0 0.4
2017-May-25 12:01N 40°39' W 074°07'0 0.7
2017-May-25 11:30N 40°39' W 074°06'1 2.5
2017-May-25 11:00N 40°38' W 074°08'0 0.0
2017-May-25 10:30N 40°38' W 074°08'0 0.0
2017-May-25 09:53N 40°38' W 074°08'0 0.0
2017-May-25 09:29N 40°38' W 074°08'0 0.0
2017-May-25 09:00N 40°38' W 074°08'0 0.0
2017-May-25 08:30N 40°38' W 074°08'0 0.0
2017-May-25 08:00N 40°38' W 074°08'0 0.0
2017-May-25 07:16N 40°38' W 074°08'0 0.0
2017-May-25 06:56N 40°38' W 074°08'0 0.0
2017-May-25 05:55N 40°38' W 074°08'0 0.1
2017-May-25 05:30N 40°38' W 074°08'4 8.9
2017-May-25 05:01N 40°40' W 074°03'2 3.5
2017-May-25 04:31N 40°41' W 074°01'0 0.3
2017-May-25 04:01N 40°41' W 074°01'0 0.0
2017-May-25 03:31N 40°41' W 074°01'0 0.0
2017-May-25 03:01N 40°41' W 074°01'5 9.2
2017-May-25 02:31N 40°39' W 074°06'1 2.4
2017-May-25 01:56N 40°38' W 074°08'0 0.0
2017-May-25 01:29N 40°38' W 074°08'0 0.0
2017-May-25 00:59N 40°38' W 074°08'0 0.0
2017-May-25 00:26N 40°38' W 074°08'0 0.0
2017-May-24 23:14N 40°38' W 074°08'0 0.0
2017-May-24 22:50N 40°38' W 074°08'0 0.0
2017-May-24 22:26N 40°38' W 074°08'0 0.0
2017-May-24 21:32N 40°38' W 074°08'0 0.0
2017-May-24 21:29N 40°38' W 074°08'0 0.0
2017-May-24 20:53N 40°38' W 074°08'0 0.0
2017-May-24 20:29N 40°38' W 074°08'0 0.0
2017-May-24 19:53N 40°38' W 074°08'0 0.0
2017-May-24 18:59N 40°38' W 074°08'0 0.0
2017-May-24 18:23N 40°38' W 074°08'0 0.0
2017-May-24 17:53N 40°38' W 074°08'0 0.0
2017-May-24 17:29N 40°38' W 074°08'0 0.0
2017-May-24 16:59N 40°38' W 074°08'0 0.0
2017-May-24 16:29N 40°38' W 074°08'0 0.0
2017-May-24 15:59N 40°38' W 074°08'0 0.0
2017-May-24 10:53N 40°38' W 074°08'0 0.0
2017-May-24 10:29N 40°38' W 074°08'0 0.0
2017-May-24 09:46N 40°38' W 074°08'310.1
2017-May-24 09:30N 40°39' W 074°11'0 0.1
2017-May-24 08:48N 40°39' W 074°11'2 6.1
2017-May-24 08:30N 40°39' W 074°09'1 0.6
2017-May-24 07:20N 40°38' W 074°08'0 0.0
2017-May-24 06:44N 40°38' W 074°08'0 0.0
2017-May-24 06:26N 40°38' W 074°08'0 0.0
2017-May-24 05:35N 40°38' W 074°08'0 0.0
2017-May-24 05:29N 40°38' W 074°08'0 0.0
2017-May-24 01:02N 40°38' W 074°08'0 0.0
2017-May-24 00:50N 40°38' W 074°08'1 2.1
2017-May-24 00:31N 40°39' W 074°07'1 1.3
2017-May-24 00:00N 40°38' W 074°08'0 0.0
2017-May-23 23:30N 40°38' W 074°08'0 0.0
2017-May-23 23:00N 40°38' W 074°08'0 0.0
2017-May-23 22:30N 40°38' W 074°08'0 0.0
2017-May-23 22:00N 40°38' W 074°08'0 0.0
2017-May-23 21:27N 40°38' W 074°08'0 0.0
2017-May-23 20:57N 40°38' W 074°08'0 0.0
2017-May-23 20:30N 40°38' W 074°08'0 0.0
2017-May-23 20:00N 40°38' W 074°08'0 0.0
2017-May-23 19:27N 40°38' W 074°08'0 0.0
2017-May-23 18:57N 40°38' W 074°08'0 0.0
2017-May-23 18:30N 40°38' W 074°08'0 0.0
2017-May-23 18:00N 40°38' W 074°08'0 0.0
2017-May-23 17:30N 40°38' W 074°08'0 0.0
2017-May-23 16:54N 40°38' W 074°08'0 0.0
2017-May-23 16:29N 40°38' W 074°08'0 0.0
2017-May-23 15:59N 40°38' W 074°08'0 0.0
2017-May-23 15:26N 40°38' W 074°08'0 0.0
2017-May-23 14:56N 40°38' W 074°08'0 0.0
2017-May-23 14:29N 40°38' W 074°08'0 0.0
2017-May-23 13:26N 40°38' W 074°08'0 0.0
2017-May-23 12:53N 40°38' W 074°08'0 0.0
2017-May-23 12:17N 40°38' W 074°08'0 0.0
2017-May-23 11:59N 40°38' W 074°08'0 0.0
2017-May-23 11:29N 40°38' W 074°08'0 0.0
2017-May-23 10:59N 40°38' W 074°08'0 0.0
2017-May-23 10:26N 40°38' W 074°08'0 0.0
2017-May-23 09:59N 40°38' W 074°08'0 0.0
2017-May-23 09:29N 40°38' W 074°08'0 0.0
2017-May-23 08:56N 40°38' W 074°08'0 0.0
2017-May-23 08:26N 40°38' W 074°08'0 0.0
2017-May-23 07:56N 40°38' W 074°08'0 0.0
2017-May-23 07:26N 40°38' W 074°08'0 0.0
2017-May-23 06:56N 40°38' W 074°08'0 0.0
2017-May-23 06:23N 40°38' W 074°08'0 0.0
2017-May-23 05:59N 40°38' W 074°08'0 0.0
2017-May-23 05:29N 40°38' W 074°08'0 0.0
2017-May-23 04:59N 40°38' W 074°08'0 0.0
2017-May-23 04:26N 40°38' W 074°08'0 0.0
2017-May-23 03:59N 40°38' W 074°08'0 0.0
2017-May-23 03:29N 40°38' W 074°08'0 0.0
2017-May-23 02:59N 40°38' W 074°08'0 0.0
2017-May-23 02:23N 40°38' W 074°08'0 0.0
2017-May-23 01:53N 40°38' W 074°08'0 0.0
2017-May-23 01:23N 40°38' W 074°08'0 0.0
2017-May-23 00:59N 40°38' W 074°08'0 0.0
2017-May-23 00:29N 40°38' W 074°08'0 0.0
2017-May-22 23:53N 40°38' W 074°08'0 0.0
2017-May-22 23:29N 40°38' W 074°08'0 0.0
2017-May-22 22:50N 40°38' W 074°08'0 0.0
2017-May-22 22:26N 40°38' W 074°08'0 0.0
2017-May-22 21:59N 40°38' W 074°08'0 0.0
2017-May-22 21:29N 40°38' W 074°08'0 0.0
2017-May-22 20:59N 40°38' W 074°08'0 0.0
2017-May-22 20:29N 40°38' W 074°08'0 0.0
2017-May-22 19:59N 40°38' W 074°08'0 0.0
2017-May-22 19:29N 40°38' W 074°08'0 0.0
2017-May-22 18:56N 40°38' W 074°08'0 0.0
2017-May-22 18:29N 40°38' W 074°08'0 0.0
2017-May-22 17:59N 40°38' W 074°08'0 0.0
2017-May-22 17:29N 40°38' W 074°08'0 0.0
2017-May-22 16:59N 40°38' W 074°08'0 0.0
2017-May-22 16:29N 40°38' W 074°08'0 0.0
2017-May-22 15:59N 40°38' W 074°08'0 0.0
2017-May-22 15:29N 40°38' W 074°08'0 0.0
2017-May-22 14:59N 40°38' W 074°08'2 1.6
2017-May-22 14:00N 40°39' W 074°06'0 0.0
2017-May-22 13:30N 40°39' W 074°06'0 0.0
2017-May-22 13:00N 40°39' W 074°06'0 0.0
2017-May-22 12:30N 40°39' W 074°06'3 5.2
2017-May-22 12:00N 40°40' W 074°03'2 3.9
2017-May-22 11:29N 40°41' W 074°01'2 3.6
2017-May-22 11:00N 40°40' W 074°03'1 2.3
2017-May-22 10:28N 40°40' W 074°04'0 0.0
2017-May-22 09:58N 40°40' W 074°04'2 4.9
2017-May-22 09:30N 40°39' W 074°07'4 8.4
2017-May-22 09:00N 40°38' W 074°12'0 0.3
2017-May-22 08:23N 40°38' W 074°12'3 7.1
2017-May-22 08:00N 40°39' W 074°09'1 1.2
2017-May-22 07:28N 40°38' W 074°08'0 0.0
2017-May-22 06:58N 40°38' W 074°08'0 0.0
2017-May-22 06:28N 40°38' W 074°08'0 0.0
2017-May-22 05:52N 40°38' W 074°08'0 0.0
2017-May-22 05:22N 40°38' W 074°08'0 0.0
2017-May-22 04:52N 40°38' W 074°08'0 0.0
2017-May-22 04:28N 40°38' W 074°08'0 0.0
2017-May-22 03:52N 40°38' W 074°08'2 5.7
2017-May-22 03:29N 40°39' W 074°05'0 0.1
2017-May-22 03:00N 40°39' W 074°05'2 1.1
2017-May-22 01:10N 40°38' W 074°08'0 0.0
2017-May-22 00:52N 40°38' W 074°08'0 0.0
2017-May-22 00:28N 40°38' W 074°08'0 0.0
2017-May-21 23:58N 40°38' W 074°08'0 0.0
2017-May-21 23:16N 40°38' W 074°08'0 0.0
2017-May-21 20:21N 40°38' W 074°08'0 0.0
2017-May-21 18:27N 40°38' W 074°08'0 0.0
2017-May-21 17:45N 40°38' W 074°08'0 0.0
2017-May-21 17:15N 40°38' W 074°08'0 0.0
2017-May-21 16:51N 40°38' W 074°08'0 0.0
2017-May-21 16:27N 40°38' W 074°08'0 0.0
2017-May-21 09:51N 40°38' W 074°08'0 0.0
2017-May-21 08:21N 40°38' W 074°08'0 0.0
2017-May-21 07:33N 40°38' W 074°08'0 0.1
2017-May-21 07:27N 40°38' W 074°08'0 0.0
2017-May-21 06:51N 40°38' W 074°08'0 0.0
2017-May-21 06:27N 40°38' W 074°08'0 0.0
2017-May-21 01:45N 40°38' W 074°08'0 0.0
2017-May-20 20:15N 40°38' W 074°08'2 7.6
2017-May-20 20:00N 40°39' W 074°05'0 0.8
2017-May-20 19:30N 40°39' W 074°06'2 2.6
2017-May-20 18:55N 40°38' W 074°08'0 0.0
2017-May-20 17:40N 40°38' W 074°08'0 0.0
2017-May-20 17:22N 40°38' W 074°08'0 0.0
2017-May-20 16:58N 40°38' W 074°08'0 0.0
2017-May-20 16:28N 40°38' W 074°08'0 0.0
2017-May-20 15:58N 40°38' W 074°08'0 0.0
2017-May-20 14:52N 40°38' W 074°08'0 0.0
2017-May-20 14:25N 40°38' W 074°08'0 0.0
2017-May-20 13:16N 40°38' W 074°08'0 0.0
2017-May-20 12:43N 40°38' W 074°08'0 0.0
2017-May-20 12:25N 40°38' W 074°08'0 0.0
2017-May-20 11:03N 40°38' W 074°08'0 4.3
2017-May-20 11:00N 40°39' W 074°08'3 6.1
2017-May-20 10:28N 40°42' W 074°09'0 0.4
2017-May-20 09:58N 40°42' W 074°09'2 3.6
2017-May-20 09:31N 40°40' W 074°08'2 3.3
2017-May-20 09:00N 40°39' W 074°08'0 0.0
2017-May-20 02:40N 40°38' W 074°08'2 9.8
2017-May-20 02:30N 40°39' W 074°06'0 0.3
2017-May-20 01:59N 40°39' W 074°06'1 2.5
2017-May-20 01:28N 40°39' W 074°04'1 1.6
2017-May-20 00:58N 40°40' W 074°04'0 0.0
2017-May-20 00:28N 40°40' W 074°04'0 0.0
2017-May-19 23:58N 40°40' W 074°04'0 0.0
2017-May-19 23:28N 40°40' W 074°04'0 0.0
2017-May-19 22:58N 40°40' W 074°04'2 3.7
2017-May-19 22:30N 40°39' W 074°06'5 8.7
2017-May-19 21:57N 40°38' W 074°12'0 0.5
2017-May-19 21:30N 40°38' W 074°12'3 1.3
2017-May-19 18:56N 40°38' W 074°08'0 0.0
2017-May-19 18:14N 40°38' W 074°08'0 0.0
2017-May-19 17:56N 40°38' W 074°08'0 0.0
2017-May-19 17:29N 40°38' W 074°08'0 0.0
2017-May-19 16:50N 40°38' W 074°08'0 0.0
2017-May-19 16:29N 40°38' W 074°08'2 3.6
2017-May-19 16:00N 40°39' W 074°06'0 0.7
2017-May-19 15:30N 40°39' W 074°05'2 3.8
2017-May-19 14:58N 40°38' W 074°08'0 0.0
2017-May-19 13:55N 40°38' W 074°08'0 0.1
2017-May-19 13:28N 40°38' W 074°08'0 0.0
2017-May-19 12:58N 40°38' W 074°08'0 0.1
2017-May-19 12:30N 40°38' W 074°08'0 0.0
2017-May-19 12:00N 40°38' W 074°08'0 0.0
2017-May-19 11:30N 40°38' W 074°08'0 0.0
2017-May-19 11:00N 40°38' W 074°08'0 0.0
2017-May-19 10:27N 40°38' W 074°08'0 0.0
2017-May-19 10:00N 40°38' W 074°08'0 0.0
2017-May-19 09:30N 40°38' W 074°08'4 7.6
2017-May-19 09:01N 40°41' W 074°04'1 1.2
2017-May-19 08:30N 40°41' W 074°04'0 0.9
2017-May-19 08:00N 40°41' W 074°04'2 4.1
2017-May-19 07:30N 40°39' W 074°03'1 1.1
2017-May-19 06:59N 40°38' W 074°04'1 2.6
2017-May-19 06:30N 40°39' W 074°05'2 2.3
2017-May-19 05:25N 40°38' W 074°08'0 0.0
2017-May-19 04:52N 40°38' W 074°08'0 0.0
2017-May-19 04:22N 40°38' W 074°08'0 0.0
2017-May-19 03:49N 40°38' W 074°08'0 0.0
2017-May-19 03:16N 40°38' W 074°08'0 0.0
2017-May-19 02:58N 40°38' W 074°08'0 0.0
2017-May-19 02:25N 40°38' W 074°08'0 0.0
2017-May-19 01:55N 40°38' W 074°08'0 0.0
2017-May-19 01:19N 40°38' W 074°08'0 0.0
2017-May-18 15:24N 40°38' W 074°08'3 7.4
2017-May-18 15:00N 40°38' W 074°12'1 1.0
2017-May-18 14:28N 40°38' W 074°12'3 1.4
2017-May-18 11:57N 40°38' W 074°08'0 0.0
2017-May-18 08:51N 40°38' W 074°08'0 0.0
2017-May-18 08:15N 40°38' W 074°08'0 0.0
2017-May-18 07:57N 40°38' W 074°08'0 0.0
2017-May-18 04:36N 40°38' W 074°08'0 0.0
2017-May-18 01:51N 40°38' W 074°08'0 0.0
2017-May-18 00:39N 40°38' W 074°08'0 0.0
2017-May-18 00:21N 40°38' W 074°08'2 6.4
2017-May-18 00:00N 40°39' W 074°11'2 1.0
2017-May-17 21:38N 40°37' W 074°12'111.2
2017-May-17 21:30N 40°38' W 074°12'1 2.2
2017-May-17 21:00N 40°39' W 074°10'1 2.5
2017-May-17 20:30N 40°39' W 074°09'1 1.3
2017-May-17 19:58N 40°38' W 074°08'0 0.0
2017-May-17 19:25N 40°38' W 074°08'0 0.0
2017-May-17 18:55N 40°38' W 074°08'0 0.0
2017-May-17 18:25N 40°38' W 074°08'0 0.3
2017-May-17 18:01N 40°39' W 074°08'4 7.1
2017-May-17 17:30N 40°39' W 074°03'4 6.8
2017-May-17 16:58N 40°38' W 074°08'4 7.9
2017-May-17 16:29N 40°38' W 074°03'4 7.6
2017-May-17 16:00N 40°39' W 074°08'0 0.0
2017-May-17 08:38N 40°38' W 074°08'0 0.0
2017-May-17 08:08N 40°38' W 074°08'0 0.0
2017-May-17 07:56N 40°38' W 074°08'0 0.0
2017-May-17 07:30N 40°38' W 074°08'0 0.0
2017-May-17 07:00N 40°38' W 074°08'0 0.0
2017-May-17 06:30N 40°38' W 074°08'0 0.0
2017-May-17 06:00N 40°38' W 074°08'0 0.0
2017-May-17 05:30N 40°38' W 074°08'0 0.0
2017-May-17 04:58N 40°38' W 074°08'0 0.0
2017-May-17 04:26N 40°38' W 074°08'0 0.0
2017-May-17 03:25N 40°38' W 074°08'0 0.0
2017-May-17 00:32N 40°38' W 074°08'0 0.0
2017-May-17 00:29N 40°38' W 074°08'0 0.0
2017-May-17 00:00N 40°38' W 074°08'0 0.0
2017-May-16 23:30N 40°38' W 074°08'0 0.0
2017-May-16 23:00N 40°38' W 074°08'0 0.0
2017-May-16 22:30N 40°38' W 074°08'0 0.1
2017-May-16 21:48N 40°38' W 074°08'3 9.7
2017-May-16 21:30N 40°39' W 074°04'2 3.6
2017-May-16 21:00N 40°37' W 074°03'1 3.0
2017-May-16 20:30N 40°39' W 074°04'3 6.9
2017-May-16 20:00N 40°39' W 074°08'3 5.9
2017-May-16 19:29N 40°38' W 074°12'2 4.0
2017-May-16 18:58N 40°36' W 074°12'1 2.8
2017-May-16 18:28N 40°34' W 074°13'1 0.8
2017-May-16 17:31N 40°35' W 074°13'0 0.2
2017-May-16 17:30N 40°35' W 074°13'1 0.4
2017-May-16 14:28N 40°36' W 074°12'2 1.8
2017-May-16 13:30N 40°38' W 074°12'4 7.3
2017-May-16 13:00N 40°39' W 074°07'3 7.0
2017-May-16 12:30N 40°37' W 074°03'1 1.9
2017-May-16 12:00N 40°36' W 074°03'0 0.1
2017-May-16 11:30N 40°36' W 074°03'  
Track history (hours):
 
Tides and Currents Weather Stations Pressure Air Temp Water Temp Dewpoint Dewpoint Depression Visibility Wind Speed Wind Dir Waves Ship Positions

James Turecamo

Owner: Moran Towing Corporation, New Canaan, CT. More information available from US FCC via Universal Licensing System and Coast Guard Vessel Documentation Center.

Last reported at 2017-May-26 12:01 UTC. Time now 2017-May-26 16:55 UTC.
Position N 40°37' W 074°12'.

Length 30 m; draft 4.2 m.

Type: Tug. MMSI: 367073380.

Date/timePositionNaut miles runAvg speedWind from/ knotsBaromVisibWave heightAir tempDewpointWater temp
2017-May-26 12:01N 40°37' W 074°12'3 6.5
2017-May-26 11:30N 40°39' W 074°08'1 1.0
2017-May-26 11:01N 40°38' W 074°08'0 0.0
2017-May-26 10:31N 40°38' W 074°08'0 0.0
2017-May-26 10:01N 40°38' W 074°08'0 0.0
2017-May-26 09:31N 40°38' W 074°08'0 0.0
2017-May-26 09:00N 40°38' W 074°08'0 0.0
2017-May-26 08:31N 40°38' W 074°08'0 0.0
2017-May-26 08:00N 40°38' W 074°08'0 0.0
2017-May-26 07:31N 40°38' W 074°08'0 0.0
2017-May-26 07:01N 40°38' W 074°08'0 0.0
2017-May-26 06:31N 40°38' W 074°08'0 0.0
2017-May-26 06:01N 40°38' W 074°08'0 0.0
2017-May-26 05:30N 40°38' W 074°08'0 0.0
2017-May-26 05:00N 40°38' W 074°08'0 0.0
2017-May-26 04:31N 40°38' W 074°08'0 0.0
2017-May-26 04:01N 40°38' W 074°08'0 0.0
2017-May-26 03:30N 40°38' W 074°08'0 0.0
2017-May-26 03:01N 40°38' W 074°08'0 0.0
2017-May-26 02:31N 40°38' W 074°08'0 0.0
2017-May-26 02:01N 40°38' W 074°08'0 0.0
2017-May-26 01:31N 40°38' W 074°08'0 0.0
2017-May-26 01:01N 40°38' W 074°08'0 0.0
2017-May-26 00:31N 40°38' W 074°08'0 0.0
2017-May-26 00:00N 40°38' W 074°08'0 0.0
2017-May-25 23:31N 40°38' W 074°08'0 0.0
2017-May-25 23:01N 40°38' W 074°08'0 0.0
2017-May-25 22:31N 40°38' W 074°08'0 0.0
2017-May-25 22:01N 40°38' W 074°08'0 0.0
2017-May-25 21:31N 40°38' W 074°08'0 0.0
2017-May-25 21:01N 40°38' W 074°08'0 0.0
2017-May-25 20:31N 40°38' W 074°08'0 0.0
2017-May-25 20:01N 40°38' W 074°08'0 0.0
2017-May-25 19:30N 40°38' W 074°08'0 0.0
2017-May-25 19:00N 40°38' W 074°08'0 0.0
2017-May-25 18:30N 40°38' W 074°08'0 0.0
2017-May-25 18:00N 40°38' W 074°08'0 0.0
2017-May-25 17:30N 40°38' W 074°08'0 0.0
2017-May-25 17:00N 40°38' W 074°08'0 0.0
2017-May-25 16:30N 40°38' W 074°08'0 0.0
2017-May-25 15:51N 40°38' W 074°08'0 0.0
2017-May-25 15:19N 40°38' W 074°08'0 0.0
2017-May-25 15:00N 40°38' W 074°08'0 0.0
2017-May-25 13:46N 40°38' W 074°08'0 1.7
2017-May-25 13:30N 40°39' W 074°07'0 0.1
2017-May-25 13:01N 40°39' W 074°07'0 0.5
2017-May-25 12:31N 40°39' W 074°07'0 0.4
2017-May-25 12:01N 40°39' W 074°07'0 0.7
2017-May-25 11:30N 40°39' W 074°06'1 2.5
2017-May-25 11:00N 40°38' W 074°08'0 0.0
2017-May-25 10:30N 40°38' W 074°08'0 0.0
2017-May-25 09:53N 40°38' W 074°08'0 0.0
2017-May-25 09:29N 40°38' W 074°08'0 0.0
2017-May-25 09:00N 40°38' W 074°08'0 0.0
2017-May-25 08:30N 40°38' W 074°08'0 0.0
2017-May-25 08:00N 40°38' W 074°08'0 0.0
2017-May-25 07:16N 40°38' W 074°08'0 0.0
2017-May-25 06:56N 40°38' W 074°08'0 0.0
2017-May-25 05:55N 40°38' W 074°08'0 0.1
2017-May-25 05:30N 40°38' W 074°08'4 8.9
2017-May-25 05:01N 40°40' W 074°03'2 3.5
2017-May-25 04:31N 40°41' W 074°01'0 0.3
2017-May-25 04:01N 40°41' W 074°01'0 0.0
2017-May-25 03:31N 40°41' W 074°01'0 0.0
2017-May-25 03:01N 40°41' W 074°01'5 9.2
2017-May-25 02:31N 40°39' W 074°06'1 2.4
2017-May-25 01:56N 40°38' W 074°08'0 0.0
2017-May-25 01:29N 40°38' W 074°08'0 0.0
2017-May-25 00:59N 40°38' W 074°08'0 0.0
2017-May-25 00:26N 40°38' W 074°08'0 0.0
2017-May-24 23:14N 40°38' W 074°08'0 0.0
2017-May-24 22:50N 40°38' W 074°08'0 0.0
2017-May-24 22:26N 40°38' W 074°08'0 0.0
2017-May-24 21:32N 40°38' W 074°08'0 0.0
2017-May-24 21:29N 40°38' W 074°08'0 0.0
2017-May-24 20:53N 40°38' W 074°08'0 0.0
2017-May-24 20:29N 40°38' W 074°08'0 0.0
2017-May-24 19:53N 40°38' W 074°08'0 0.0
2017-May-24 18:59N 40°38' W 074°08'0 0.0
2017-May-24 18:23N 40°38' W 074°08'0 0.0
2017-May-24 17:53N 40°38' W 074°08'0 0.0
2017-May-24 17:29N 40°38' W 074°08'0 0.0
2017-May-24 16:59N 40°38' W 074°08'0 0.0
2017-May-24 16:29N 40°38' W 074°08'0 0.0
2017-May-24 15:59N 40°38' W 074°08'0 0.0
2017-May-24 10:53N 40°38' W 074°08'0 0.0
2017-May-24 10:29N 40°38' W 074°08'0 0.0
2017-May-24 09:46N 40°38' W 074°08'310.1
2017-May-24 09:30N 40°39' W 074°11'0 0.1
2017-May-24 08:48N 40°39' W 074°11'2 6.1
2017-May-24 08:30N 40°39' W 074°09'1 0.6
2017-May-24 07:20N 40°38' W 074°08'0 0.0
2017-May-24 06:44N 40°38' W 074°08'0 0.0
2017-May-24 06:26N 40°38' W 074°08'0 0.0
2017-May-24 05:35N 40°38' W 074°08'0 0.0
2017-May-24 05:29N 40°38' W 074°08'0 0.0
2017-May-24 01:02N 40°38' W 074°08'0 0.0
2017-May-24 00:50N 40°38' W 074°08'1 2.1
2017-May-24 00:31N 40°39' W 074°07'1 1.3
2017-May-24 00:00N 40°38' W 074°08'0 0.0
2017-May-23 23:30N 40°38' W 074°08'0 0.0
2017-May-23 23:00N 40°38' W 074°08'0 0.0
2017-May-23 22:30N 40°38' W 074°08'0 0.0
2017-May-23 22:00N 40°38' W 074°08'0 0.0
2017-May-23 21:27N 40°38' W 074°08'0 0.0
2017-May-23 20:57N 40°38' W 074°08'0 0.0
2017-May-23 20:30N 40°38' W 074°08'0 0.0
2017-May-23 20:00N 40°38' W 074°08'0 0.0
2017-May-23 19:27N 40°38' W 074°08'0 0.0
2017-May-23 18:57N 40°38' W 074°08'0 0.0
2017-May-23 18:30N 40°38' W 074°08'0 0.0
2017-May-23 18:00N 40°38' W 074°08'0 0.0
2017-May-23 17:30N 40°38' W 074°08'0 0.0
2017-May-23 16:54N 40°38' W 074°08'0 0.0
2017-May-23 16:29N 40°38' W 074°08'0 0.0
2017-May-23 15:59N 40°38' W 074°08'0 0.0
2017-May-23 15:26N 40°38' W 074°08'0 0.0
2017-May-23 14:56N 40°38' W 074°08'0 0.0
2017-May-23 14:29N 40°38' W 074°08'0 0.0
2017-May-23 13:26N 40°38' W 074°08'0 0.0
2017-May-23 12:53N 40°38' W 074°08'0 0.0
2017-May-23 12:17N 40°38' W 074°08'0 0.0
2017-May-23 11:59N 40°38' W 074°08'0 0.0
2017-May-23 11:29N 40°38' W 074°08'0 0.0
2017-May-23 10:59N 40°38' W 074°08'0 0.0
2017-May-23 10:26N 40°38' W 074°08'0 0.0
2017-May-23 09:59N 40°38' W 074°08'0 0.0
2017-May-23 09:29N 40°38' W 074°08'0 0.0
2017-May-23 08:56N 40°38' W 074°08'0 0.0
2017-May-23 08:26N 40°38' W 074°08'0 0.0
2017-May-23 07:56N 40°38' W 074°08'0 0.0
2017-May-23 07:26N 40°38' W 074°08'0 0.0
2017-May-23 06:56N 40°38' W 074°08'0 0.0
2017-May-23 06:23N 40°38' W 074°08'0 0.0
2017-May-23 05:59N 40°38' W 074°08'0 0.0
2017-May-23 05:29N 40°38' W 074°08'0 0.0
2017-May-23 04:59N 40°38' W 074°08'0 0.0
2017-May-23 04:26N 40°38' W 074°08'0 0.0
2017-May-23 03:59N 40°38' W 074°08'0 0.0
2017-May-23 03:29N 40°38' W 074°08'0 0.0
2017-May-23 02:59N 40°38' W 074°08'0 0.0
2017-May-23 02:23N 40°38' W 074°08'0 0.0
2017-May-23 01:53N 40°38' W 074°08'0 0.0
2017-May-23 01:23N 40°38' W 074°08'0 0.0
2017-May-23 00:59N 40°38' W 074°08'0 0.0
2017-May-23 00:29N 40°38' W 074°08'0 0.0
2017-May-22 23:53N 40°38' W 074°08'0 0.0
2017-May-22 23:29N 40°38' W 074°08'0 0.0
2017-May-22 22:50N 40°38' W 074°08'0 0.0
2017-May-22 22:26N 40°38' W 074°08'0 0.0
2017-May-22 21:59N 40°38' W 074°08'0 0.0
2017-May-22 21:29N 40°38' W 074°08'0 0.0
2017-May-22 20:59N 40°38' W 074°08'0 0.0
2017-May-22 20:29N 40°38' W 074°08'0 0.0
2017-May-22 19:59N 40°38' W 074°08'0 0.0
2017-May-22 19:29N 40°38' W 074°08'0 0.0
2017-May-22 18:56N 40°38' W 074°08'0 0.0
2017-May-22 18:29N 40°38' W 074°08'0 0.0
2017-May-22 17:59N 40°38' W 074°08'0 0.0
2017-May-22 17:29N 40°38' W 074°08'0 0.0
2017-May-22 16:59N 40°38' W 074°08'0 0.0
2017-May-22 16:29N 40°38' W 074°08'0 0.0
2017-May-22 15:59N 40°38' W 074°08'0 0.0
2017-May-22 15:29N 40°38' W 074°08'0 0.0
2017-May-22 14:59N 40°38' W 074°08'2 1.6
2017-May-22 14:00N 40°39' W 074°06'0 0.0
2017-May-22 13:30N 40°39' W 074°06'0 0.0
2017-May-22 13:00N 40°39' W 074°06'0 0.0
2017-May-22 12:30N 40°39' W 074°06'3 5.2
2017-May-22 12:00N 40°40' W 074°03'2 3.9
2017-May-22 11:29N 40°41' W 074°01'2 3.6
2017-May-22 11:00N 40°40' W 074°03'1 2.3
2017-May-22 10:28N 40°40' W 074°04'0 0.0
2017-May-22 09:58N 40°40' W 074°04'2 4.9
2017-May-22 09:30N 40°39' W 074°07'4 8.4
2017-May-22 09:00N 40°38' W 074°12'0 0.3
2017-May-22 08:23N 40°38' W 074°12'3 7.1
2017-May-22 08:00N 40°39' W 074°09'1 1.2
2017-May-22 07:28N 40°38' W 074°08'0 0.0
2017-May-22 06:58N 40°38' W 074°08'0 0.0
2017-May-22 06:28N 40°38' W 074°08'0 0.0
2017-May-22 05:52N 40°38' W 074°08'0 0.0
2017-May-22 05:22N 40°38' W 074°08'0 0.0
2017-May-22 04:52N 40°38' W 074°08'0 0.0
2017-May-22 04:28N 40°38' W 074°08'0 0.0
2017-May-22 03:52N 40°38' W 074°08'2 5.7
2017-May-22 03:29N 40°39' W 074°05'0 0.1
2017-May-22 03:00N 40°39' W 074°05'2 1.1
2017-May-22 01:10N 40°38' W 074°08'0 0.0
2017-May-22 00:52N 40°38' W 074°08'0 0.0
2017-May-22 00:28N 40°38' W 074°08'0 0.0
2017-May-21 23:58N 40°38' W 074°08'0 0.0
2017-May-21 23:16N 40°38' W 074°08'0 0.0
2017-May-21 20:21N 40°38' W 074°08'0 0.0
2017-May-21 18:27N 40°38' W 074°08'0 0.0
2017-May-21 17:45N 40°38' W 074°08'0 0.0
2017-May-21 17:15N 40°38' W 074°08'0 0.0
2017-May-21 16:51N 40°38' W 074°08'0 0.0
2017-May-21 16:27N 40°38' W 074°08'0 0.0
2017-May-21 09:51N 40°38' W 074°08'0 0.0
2017-May-21 08:21N 40°38' W 074°08'0 0.0
2017-May-21 07:33N 40°38' W 074°08'0 0.1
2017-May-21 07:27N 40°38' W 074°08'0 0.0
2017-May-21 06:51N 40°38' W 074°08'0 0.0
2017-May-21 06:27N 40°38' W 074°08'0 0.0
2017-May-21 01:45N 40°38' W 074°08'0 0.0
2017-May-20 20:15N 40°38' W 074°08'2 7.6
2017-May-20 20:00N 40°39' W 074°05'0 0.8
2017-May-20 19:30N 40°39' W 074°06'2 2.6
2017-May-20 18:55N 40°38' W 074°08'0 0.0
2017-May-20 17:40N 40°38' W 074°08'0 0.0
2017-May-20 17:22N 40°38' W 074°08'0 0.0
2017-May-20 16:58N 40°38' W 074°08'0 0.0
2017-May-20 16:28N 40°38' W 074°08'0 0.0
2017-May-20 15:58N 40°38' W 074°08'0 0.0
2017-May-20 14:52N 40°38' W 074°08'0 0.0
2017-May-20 14:25N 40°38' W 074°08'0 0.0
2017-May-20 13:16N 40°38' W 074°08'0 0.0
2017-May-20 12:43N 40°38' W 074°08'0 0.0
2017-May-20 12:25N 40°38' W 074°08'0 0.0
2017-May-20 11:03N 40°38' W 074°08'0 4.3
2017-May-20 11:00N 40°39' W 074°08'3 6.1
2017-May-20 10:28N 40°42' W 074°09'0 0.4
2017-May-20 09:58N 40°42' W 074°09'2 3.6
2017-May-20 09:31N 40°40' W 074°08'2 3.3
2017-May-20 09:00N 40°39' W 074°08'0 0.0
2017-May-20 02:40N 40°38' W 074°08'2 9.8
2017-May-20 02:30N 40°39' W 074°06'0 0.3
2017-May-20 01:59N 40°39' W 074°06'1 2.5
2017-May-20 01:28N 40°39' W 074°04'1 1.6
2017-May-20 00:58N 40°40' W 074°04'0 0.0
2017-May-20 00:28N 40°40' W 074°04'0 0.0
2017-May-19 23:58N 40°40' W 074°04'0 0.0
2017-May-19 23:28N 40°40' W 074°04'0 0.0
2017-May-19 22:58N 40°40' W 074°04'2 3.7
2017-May-19 22:30N 40°39' W 074°06'5 8.7
2017-May-19 21:57N 40°38' W 074°12'0 0.5
2017-May-19 21:30N 40°38' W 074°12'3 1.3
2017-May-19 18:56N 40°38' W 074°08'0 0.0
2017-May-19 18:14N 40°38' W 074°08'0 0.0
2017-May-19 17:56N 40°38' W 074°08'0 0.0
2017-May-19 17:29N 40°38' W 074°08'0 0.0
2017-May-19 16:50N 40°38' W 074°08'0 0.0
2017-May-19 16:29N 40°38' W 074°08'2 3.6
2017-May-19 16:00N 40°39' W 074°06'0 0.7
2017-May-19 15:30N 40°39' W 074°05'2 3.8
2017-May-19 14:58N 40°38' W 074°08'0 0.0
2017-May-19 13:55N 40°38' W 074°08'0 0.1
2017-May-19 13:28N 40°38' W 074°08'0 0.0
2017-May-19 12:58N 40°38' W 074°08'0 0.1
2017-May-19 12:30N 40°38' W 074°08'0 0.0
2017-May-19 12:00N 40°38' W 074°08'0 0.0
2017-May-19 11:30N 40°38' W 074°08'0 0.0
2017-May-19 11:00N 40°38' W 074°08'0 0.0
2017-May-19 10:27N 40°38' W 074°08'0 0.0
2017-May-19 10:00N 40°38' W 074°08'0 0.0
2017-May-19 09:30N 40°38' W 074°08'4 7.6
2017-May-19 09:01N 40°41' W 074°04'1 1.2
2017-May-19 08:30N 40°41' W 074°04'0 0.9
2017-May-19 08:00N 40°41' W 074°04'2 4.1
2017-May-19 07:30N 40°39' W 074°03'1 1.1
2017-May-19 06:59N 40°38' W 074°04'1 2.6
2017-May-19 06:30N 40°39' W 074°05'2 2.3
2017-May-19 05:25N 40°38' W 074°08'0 0.0
2017-May-19 04:52N 40°38' W 074°08'0 0.0
2017-May-19 04:22N 40°38' W 074°08'0 0.0
2017-May-19 03:49N 40°38' W 074°08'0 0.0
2017-May-19 03:16N 40°38' W 074°08'0 0.0
2017-May-19 02:58N 40°38' W 074°08'0 0.0
2017-May-19 02:25N 40°38' W 074°08'0 0.0
2017-May-19 01:55N 40°38' W 074°08'0 0.0
2017-May-19 01:19N 40°38' W 074°08'0 0.0
2017-May-18 15:24N 40°38' W 074°08'3 7.4
2017-May-18 15:00N 40°38' W 074°12'1 1.0
2017-May-18 14:28N 40°38' W 074°12'3 1.4
2017-May-18 11:57N 40°38' W 074°08'0 0.0
2017-May-18 08:51N 40°38' W 074°08'0 0.0
2017-May-18 08:15N 40°38' W 074°08'0 0.0
2017-May-18 07:57N 40°38' W 074°08'0 0.0
2017-May-18 04:36N 40°38' W 074°08'0 0.0
2017-May-18 01:51N 40°38' W 074°08'0 0.0
2017-May-18 00:39N 40°38' W 074°08'0 0.0
2017-May-18 00:21N 40°38' W 074°08'2 6.4
2017-May-18 00:00N 40°39' W 074°11'2 1.0
2017-May-17 21:38N 40°37' W 074°12'111.2
2017-May-17 21:30N 40°38' W 074°12'1 2.2
2017-May-17 21:00N 40°39' W 074°10'1 2.5
2017-May-17 20:30N 40°39' W 074°09'1 1.3
2017-May-17 19:58N 40°38' W 074°08'0 0.0
2017-May-17 19:25N 40°38' W 074°08'0 0.0
2017-May-17 18:55N 40°38' W 074°08'0 0.0
2017-May-17 18:25N 40°38' W 074°08'0 0.3
2017-May-17 18:01N 40°39' W 074°08'4 7.1
2017-May-17 17:30N 40°39' W 074°03'4 6.8
2017-May-17 16:58N 40°38' W 074°08'4 7.9
2017-May-17 16:29N 40°38' W 074°03'4 7.6
2017-May-17 16:00N 40°39' W 074°08'0 0.0
2017-May-17 08:38N 40°38' W 074°08'0 0.0
2017-May-17 08:08N 40°38' W 074°08'0 0.0
2017-May-17 07:56N 40°38' W 074°08'0 0.0
2017-May-17 07:30N 40°38' W 074°08'0 0.0
2017-May-17 07:00N 40°38' W 074°08'0 0.0
2017-May-17 06:30N 40°38' W 074°08'0 0.0
2017-May-17 06:00N 40°38' W 074°08'0 0.0
2017-May-17 05:30N 40°38' W 074°08'0 0.0
2017-May-17 04:58N 40°38' W 074°08'0 0.0
2017-May-17 04:26N 40°38' W 074°08'0 0.0
2017-May-17 03:25N 40°38' W 074°08'0 0.0
2017-May-17 00:32N 40°38' W 074°08'0 0.0
2017-May-17 00:29N 40°38' W 074°08'0 0.0
2017-May-17 00:00N 40°38' W 074°08'0 0.0
2017-May-16 23:30N 40°38' W 074°08'0 0.0
2017-May-16 23:00N 40°38' W 074°08'0 0.0
2017-May-16 22:30N 40°38' W 074°08'0 0.1
2017-May-16 21:48N 40°38' W 074°08'3 9.7
2017-May-16 21:30N 40°39' W 074°04'2 3.6
2017-May-16 21:00N 40°37' W 074°03'1 3.0
2017-May-16 20:30N 40°39' W 074°04'3 6.9
2017-May-16 20:00N 40°39' W 074°08'3 5.9
2017-May-16 19:29N 40°38' W 074°12'2 4.0
2017-May-16 18:58N 40°36' W 074°12'1 2.8
2017-May-16 18:28N 40°34' W 074°13'1 0.8
2017-May-16 17:31N 40°35' W 074°13'0 0.2
2017-May-16 17:30N 40°35' W 074°13'1 0.4
2017-May-16 14:28N 40°36' W 074°12'2 1.8
2017-May-16 13:30N 40°38' W 074°12'4 7.3
2017-May-16 13:00N 40°39' W 074°07'3 7.0
2017-May-16 12:30N 40°37' W 074°03'1 1.9
2017-May-16 12:00N 40°36' W 074°03'0 0.1
2017-May-16 11:30N 40°36' W 074°03'  

Dump ship's entire track history